createdAt,value
2017-11-14T00:01:25.214Z,15.20
2017-11-14T00:03:51.629Z,18.80
2017-11-14T00:06:18.072Z,22.70
2017-11-14T00:08:44.489Z,20.13
2017-11-14T00:11:10.933Z,20.13
2017-11-14T00:13:37.374Z,22.83
2017-11-14T00:16:03.945Z,19.27
2017-11-14T00:18:30.557Z,23.50
2017-11-14T00:20:56.998Z,20.40
2017-11-14T00:23:23.418Z,31.97
2017-11-14T00:25:50.058Z,27.93
2017-11-14T00:28:16.476Z,29.33
2017-11-14T00:30:42.918Z,24.07
2017-11-14T00:33:09.383Z,11.13
2017-11-14T00:35:35.882Z,17.63
2017-11-14T00:38:02.456Z,31.33
2017-11-14T00:40:28.963Z,11.30
2017-11-14T00:42:55.527Z,19.13
2017-11-14T00:45:22.143Z,20.17
2017-11-14T00:47:48.805Z,15.33
2017-11-14T00:50:15.444Z,20.23
2017-11-14T00:52:41.885Z,16.13
2017-11-14T00:55:08.587Z,19.50
2017-11-14T00:57:35.162Z,32.17
2017-11-14T01:00:01.798Z,19.77
2017-11-14T01:02:28.411Z,16.13
2017-11-14T01:04:54.662Z,21.63
2017-11-14T01:07:21.297Z,17.27
2017-11-14T01:09:47.818Z,19.20
2017-11-14T01:12:14.331Z,17.97
2017-11-14T01:14:40.750Z,18.83
2017-11-14T01:17:07.444Z,29.20
2017-11-14T01:19:33.932Z,19.47
2017-11-14T01:22:00.374Z,23.17
2017-11-14T01:24:26.792Z,21.43
2017-11-14T01:26:53.233Z,20.27
2017-11-14T01:29:19.675Z,19.70
2017-11-14T01:31:46.092Z,25.03
2017-11-14T01:34:12.677Z,28.47
2017-11-14T01:36:39.178Z,31.90
2017-11-14T01:39:05.722Z,47.03
2017-11-14T01:41:32.134Z,21.80
2017-11-14T01:43:58.577Z,35.30
2017-11-14T01:46:25.241Z,29.93
2017-11-14T01:48:51.889Z,40.30
2017-11-14T01:51:18.503Z,42.07
2017-11-14T01:53:45.169Z,35.67
2017-11-14T01:56:11.788Z,32.00
2017-11-14T01:58:38.203Z,28.30
2017-11-14T02:01:04.870Z,27.27
2017-11-14T02:03:31.321Z,51.67
2017-11-14T02:05:57.931Z,35.87
2017-11-14T02:08:24.995Z,34.70
2017-11-14T02:10:51.649Z,21.33
2017-11-14T02:13:18.171Z,31.63
2017-11-14T02:15:44.672Z,17.93
2017-11-14T02:18:11.090Z,14.53
2017-11-14T02:20:37.556Z,25.87
2017-11-14T02:23:04.213Z,16.13
2017-11-14T02:25:30.840Z,24.10
2017-11-14T02:27:57.233Z,29.27
2017-11-14T02:30:23.699Z,20.43
2017-11-14T02:32:50.358Z,18.97
2017-11-14T02:35:16.860Z,11.53
2017-11-14T02:37:43.275Z,21.13
2017-11-14T02:40:09.716Z,17.83
2017-11-14T02:42:36.295Z,14.10
2017-11-14T02:45:02.625Z,15.97
2017-11-14T02:47:29.117Z,12.00
2017-11-14T02:49:55.562Z,17.30
2017-11-14T02:52:22.234Z,18.87
2017-11-14T02:54:48.872Z,19.37
2017-11-14T02:57:15.489Z,17.10
2017-11-14T02:59:42.149Z,14.50
2017-11-14T03:02:08.670Z,11.90
2017-11-14T03:04:35.027Z,9.23
2017-11-14T03:07:01.635Z,16.70
2017-11-14T03:09:28.047Z,21.87
2017-11-14T03:11:54.489Z,14.50
2017-11-14T03:14:21.031Z,14.57
2017-11-14T03:16:47.448Z,17.90
2017-11-14T03:19:13.889Z,13.03
2017-11-14T03:21:40.408Z,12.93
2017-11-14T03:24:06.849Z,20.20
2017-11-14T03:26:33.290Z,11.90
2017-11-14T03:28:59.970Z,9.23
2017-11-14T03:31:26.804Z,14.87
2017-11-14T03:33:53.450Z,13.47
2017-11-14T03:36:19.760Z,18.95
2017-11-14T03:38:46.315Z,23.93
2017-11-14T03:41:12.950Z,17.10
2017-11-14T03:43:39.591Z,19.30
2017-11-14T03:46:06.054Z,12.67
2017-11-14T03:48:32.662Z,16.57
2017-11-14T03:50:59.283Z,16.80
2017-11-14T03:53:25.937Z,24.50
2017-11-14T03:55:52.543Z,18.13
2017-11-14T03:58:19.066Z,25.13
2017-11-14T04:00:45.504Z,27.13
2017-11-14T04:03:12.068Z,19.70
2017-11-14T04:05:38.563Z,30.90
2017-11-14T04:08:05.354Z,18.53
2017-11-14T04:10:31.786Z,19.40
2017-11-14T04:12:58.412Z,31.83
2017-11-14T04:15:24.829Z,22.23
2017-11-14T04:17:51.276Z,20.60
2017-11-14T04:20:17.938Z,24.07
2017-11-14T04:22:44.561Z,18.10
2017-11-14T04:25:11.198Z,22.80
2017-11-14T04:27:37.717Z,28.20
2017-11-14T04:30:04.159Z,19.90
2017-11-14T04:32:30.673Z,27.93
2017-11-14T04:34:57.352Z,19.90
2017-11-14T04:37:23.994Z,24.73
2017-11-14T04:39:50.444Z,23.43
2017-11-14T04:42:16.918Z,26.00
2017-11-14T04:44:43.359Z,16.57
2017-11-14T04:47:09.891Z,22.90
2017-11-14T04:49:36.570Z,17.30
2017-11-14T04:52:03.208Z,20.07
2017-11-14T04:54:29.701Z,22.47
2017-11-14T04:56:56.246Z,17.20
2017-11-14T04:59:22.686Z,18.20
2017-11-14T05:01:49.102Z,22.20
2017-11-14T05:04:15.784Z,16.60
2017-11-14T05:06:42.288Z,15.47
2017-11-14T05:09:08.855Z,20.60
2017-11-14T05:11:35.472Z,16.80
2017-11-14T05:14:01.890Z,23.30
2017-11-14T05:16:28.311Z,18.47
2017-11-14T05:18:54.995Z,16.00
2017-11-14T05:21:21.636Z,18.47
2017-11-14T05:23:48.132Z,17.60
2017-11-14T05:26:14.575Z,13.63
2017-11-14T05:28:41.144Z,14.70
2017-11-14T05:31:07.638Z,11.30
2017-11-14T05:33:34.176Z,15.03
2017-11-14T05:36:00.490Z,12.70
2017-11-14T05:38:26.934Z,30.60
2017-11-14T05:40:53.375Z,19.67
2017-11-14T05:43:19.953Z,22.37
2017-11-14T05:45:46.559Z,14.80
2017-11-14T05:48:13.050Z,17.10
2017-11-14T05:50:39.643Z,14.80
2017-11-14T05:55:45.036Z,13.53
2017-11-14T05:58:11.455Z,20.33
2017-11-14T06:00:38.083Z,19.07
2017-11-14T06:03:04.724Z,13.53
2017-11-14T06:05:31.208Z,16.20
2017-11-14T06:07:57.650Z,16.70
2017-11-14T06:10:24.231Z,17.87
2017-11-14T06:12:50.833Z,21.63
2017-11-14T06:15:17.497Z,18.93
2017-11-14T06:17:43.918Z,17.67
2017-11-14T06:20:10.360Z,23.20
2017-11-14T06:22:36.998Z,20.10
2017-11-14T06:25:03.394Z,29.87
2017-11-14T06:27:29.734Z,27.00
2017-11-14T06:29:56.181Z,49.60
2017-11-14T06:32:22.594Z,29.03
2017-11-14T06:34:49.040Z,30.30
2017-11-14T06:37:15.441Z,24.33
2017-11-14T06:39:41.895Z,22.63
2017-11-14T06:42:08.483Z,20.80
2017-11-14T06:44:35.431Z,28.57
2017-11-14T06:47:01.947Z,23.43
2017-11-14T06:49:28.605Z,26.57
2017-11-14T06:51:55.114Z,28.17
2017-11-14T06:54:21.524Z,33.50
2017-11-14T06:56:48.105Z,24.20
2017-11-14T06:59:14.731Z,23.63
2017-11-14T07:01:41.372Z,15.93
2017-11-14T07:04:08.027Z,19.63
2017-11-14T07:06:34.658Z,31.42
2017-11-14T07:09:01.094Z,28.70
2017-11-14T07:11:27.715Z,27.50
2017-11-14T07:13:54.369Z,40.43
2017-11-14T07:16:20.853Z,22.40
2017-11-14T07:18:47.239Z,15.03
2017-11-14T07:21:13.879Z,9.67
2017-11-14T07:23:40.523Z,16.63
2017-11-14T07:26:06.997Z,24.47
2017-11-14T07:28:33.541Z,15.53
2017-11-14T07:30:59.989Z,18.53
2017-11-14T07:33:26.646Z,18.52
2017-11-14T07:35:53.141Z,30.73
2017-11-14T07:38:19.566Z,20.23
2017-11-14T07:40:46.149Z,30.67
2017-11-14T07:43:12.790Z,14.03
2017-11-14T07:45:39.307Z,37.70
2017-11-14T07:48:05.563Z,23.03
2017-11-14T07:50:32.104Z,30.47
2017-11-14T07:52:58.585Z,22.30
2017-11-14T07:55:25.168Z,22.90
2017-11-14T07:57:51.811Z,27.00
2017-11-14T08:00:18.261Z,28.27
2017-11-14T08:02:44.828Z,31.57
2017-11-14T08:05:11.518Z,38.03
2017-11-14T08:07:38.137Z,43.27
2017-11-14T08:10:04.554Z,62.53
2017-11-14T08:12:31.197Z,26.50
2017-11-14T08:14:57.636Z,17.40
2017-11-14T08:17:24.057Z,20.20
2017-11-14T08:19:50.473Z,14.80
2017-11-14T08:22:16.916Z,14.43
2017-11-14T08:24:43.369Z,14.30
2017-11-14T08:27:10.033Z,13.70
2017-11-14T08:29:36.468Z,16.20
2017-11-14T08:32:03.105Z,14.10
2017-11-14T08:34:29.726Z,14.77
2017-11-14T08:36:56.341Z,25.37
2017-11-14T08:39:22.811Z,15.47
2017-11-14T08:41:49.250Z,9.60
2017-11-14T08:44:15.474Z,6.73
2017-11-14T08:46:42.115Z,7.13
2017-11-14T08:49:08.729Z,11.03
2017-11-14T08:51:35.147Z,7.00
2017-11-14T08:54:01.488Z,15.70
2017-11-14T08:56:27.907Z,10.47
2017-11-14T08:58:54.285Z,9.83
2017-11-14T09:01:20.920Z,8.00
2017-11-14T09:03:47.364Z,13.20
2017-11-14T09:06:13.994Z,10.63
2017-11-14T09:08:40.613Z,10.40
2017-11-14T09:11:07.269Z,8.63
2017-11-14T09:13:33.900Z,14.10
2017-11-14T09:16:00.343Z,9.20
2017-11-14T09:18:26.986Z,12.23
2017-11-14T09:20:53.600Z,10.37
2017-11-14T09:23:19.996Z,8.20
2017-11-14T09:25:46.688Z,8.57
2017-11-14T09:28:13.503Z,13.60
2017-11-14T09:30:39.947Z,10.43
2017-11-14T09:33:06.463Z,20.30
2017-11-14T09:35:32.908Z,19.90
2017-11-14T09:37:59.423Z,10.33
2017-11-14T09:40:26.145Z,12.93
2017-11-14T09:42:52.609Z,9.77
2017-11-14T09:45:18.976Z,11.50
2017-11-14T09:47:45.623Z,18.00
2017-11-14T09:50:12.253Z,7.13
2017-11-14T09:52:38.874Z,18.17
2017-11-14T09:55:05.393Z,19.20
2017-11-14T09:57:31.768Z,28.40
2017-11-14T09:59:58.190Z,23.63
2017-11-14T10:02:24.817Z,33.73
2017-11-14T10:04:51.212Z,26.23
2017-11-14T10:07:17.654Z,27.70
2017-11-14T10:09:44.335Z,26.83
2017-11-14T10:12:10.840Z,32.40
2017-11-14T10:14:37.355Z,31.10
2017-11-14T10:17:03.773Z,26.83
2017-11-14T10:19:30.140Z,25.70
2017-11-14T10:21:56.707Z,24.53
2017-11-14T10:24:23.323Z,23.43
2017-11-14T10:26:49.741Z,25.10
2017-11-14T10:29:16.162Z,38.33
2017-11-14T10:31:42.850Z,26.47
2017-11-14T10:34:09.288Z,27.63
2017-11-14T10:36:35.907Z,27.80
2017-11-14T10:39:02.426Z,30.33
2017-11-14T10:41:28.844Z,26.10
2017-11-14T10:43:55.408Z,22.60
2017-11-14T10:46:22.067Z,25.20
2017-11-14T10:48:48.670Z,43.97
2017-11-14T10:51:15.086Z,31.83
2017-11-14T10:53:41.754Z,35.00
2017-11-14T10:56:08.174Z,36.07
2017-11-14T10:58:34.588Z,39.20
2017-11-14T11:01:01.278Z,39.00
2017-11-14T11:03:27.715Z,31.43
2017-11-14T11:05:54.338Z,47.90
2017-11-14T11:08:20.857Z,39.63
2017-11-14T11:10:47.424Z,39.47
2017-11-14T11:13:13.940Z,40.13
2017-11-14T11:15:40.358Z,35.07
2017-11-14T11:18:06.799Z,36.60
2017-11-14T11:20:33.164Z,37.00
2017-11-14T11:22:59.590Z,31.60
2017-11-14T11:25:26.100Z,50.30
2017-11-14T11:27:52.518Z,35.57
2017-11-14T11:30:19.060Z,34.27
2017-11-14T11:32:45.736Z,31.20
2017-11-14T11:35:12.343Z,45.20
2017-11-14T11:37:39.010Z,39.77
2017-11-14T11:40:05.675Z,48.30
2017-11-14T11:42:32.286Z,38.53
2017-11-14T11:44:58.933Z,41.30
2017-11-14T11:47:25.557Z,48.10
2017-11-14T11:49:51.995Z,43.80
2017-11-14T11:52:18.484Z,51.33
2017-11-14T11:54:44.929Z,64.47
2017-11-14T11:57:11.380Z,58.10
2017-11-14T11:59:37.889Z,57.37
2017-11-14T12:02:04.333Z,51.80
2017-11-14T12:04:30.769Z,49.03
2017-11-14T12:06:57.222Z,60.50
2017-11-14T12:09:23.565Z,55.60
2017-11-14T12:11:49.789Z,60.13
2017-11-14T12:14:16.416Z,71.73
2017-11-14T12:16:42.858Z,62.97
2017-11-14T12:19:09.252Z,55.67
2017-11-14T12:21:35.931Z,58.37
2017-11-14T12:24:02.573Z,64.57
2017-11-14T12:26:29.207Z,80.47
2017-11-14T12:28:55.854Z,62.03
2017-11-14T12:31:22.461Z,76.30
2017-11-14T12:33:48.902Z,60.93
2017-11-14T12:36:15.564Z,69.50
2017-11-14T12:38:42.005Z,69.33
2017-11-14T12:41:08.603Z,77.50
2017-11-14T12:43:35.272Z,77.93
2017-11-14T12:46:01.765Z,71.33
2017-11-14T12:48:28.346Z,74.07
2017-11-14T12:50:54.947Z,74.70
2017-11-14T12:53:21.649Z,76.13
2017-11-14T12:55:47.895Z,76.43
2017-11-14T12:58:14.471Z,72.03
2017-11-14T13:00:40.999Z,77.63
2017-11-14T13:03:07.441Z,69.17
2017-11-14T13:05:34.096Z,73.23
2017-11-14T13:08:00.374Z,69.20
2017-11-14T13:10:26.654Z,69.77
2017-11-14T13:12:53.175Z,80.77
2017-11-14T13:15:19.690Z,67.33
2017-11-14T13:17:46.107Z,73.20
2017-11-14T13:20:12.336Z,70.73
2017-11-14T13:22:38.692Z,71.50
2017-11-14T13:25:05.255Z,75.77
2017-11-14T13:27:31.699Z,78.57
2017-11-14T13:29:58.332Z,75.17
2017-11-14T13:32:24.935Z,74.70
2017-11-14T13:34:51.352Z,68.33
2017-11-14T13:37:18.037Z,81.07
2017-11-14T13:39:44.261Z,78.33
2017-11-14T13:42:10.501Z,73.80
2017-11-14T13:44:36.765Z,76.20
2017-11-14T13:47:03.024Z,76.27
2017-11-14T13:49:29.576Z,72.93
2017-11-14T13:51:56.229Z,79.23
2017-11-14T13:54:22.865Z,78.37
2017-11-14T13:56:49.305Z,72.60
2017-11-14T13:59:15.919Z,76.60
2017-11-14T14:01:42.340Z,74.60
2017-11-14T14:04:08.755Z,82.20
2017-11-14T14:06:35.034Z,81.27
2017-11-14T14:09:01.673Z,75.77
2017-11-14T14:11:28.283Z,82.43
2017-11-14T14:13:54.947Z,77.10
2017-11-14T14:16:21.568Z,82.00
2017-11-14T14:18:48.207Z,81.90
2017-11-14T14:21:14.864Z,76.23
2017-11-14T14:23:41.112Z,77.50
2017-11-14T14:26:07.609Z,84.27
2017-11-14T14:28:34.125Z,88.80
2017-11-14T14:31:00.543Z,91.80
2017-11-14T14:33:26.884Z,77.83
2017-11-14T14:35:53.325Z,88.57
2017-11-14T14:38:19.743Z,88.90
2017-11-14T14:40:45.952Z,74.47
2017-11-14T14:43:12.555Z,83.00
2017-11-14T14:45:39.193Z,121.57
2017-11-14T14:48:05.685Z,94.90
2017-11-14T14:50:32.075Z,100.30
2017-11-14T14:52:58.545Z,83.97
2017-11-14T14:55:24.987Z,94.73
2017-11-14T14:57:51.430Z,85.77
2017-11-14T15:00:17.846Z,86.23
2017-11-14T15:02:44.232Z,94.17
2017-11-14T15:05:10.696Z,84.50
2017-11-14T15:07:37.310Z,82.80
2017-11-14T15:10:03.936Z,91.03
2017-11-14T15:12:30.576Z,90.30
2017-11-14T15:14:57.218Z,84.10
2017-11-14T15:17:23.653Z,95.03
2017-11-14T15:19:50.085Z,92.97
2017-11-14T15:22:16.693Z,93.23
2017-11-14T15:24:43.140Z,84.17
2017-11-14T15:27:09.581Z,120.80
2017-11-14T15:29:36.023Z,90.17
2017-11-14T15:32:02.641Z,119.90
2017-11-14T15:34:29.299Z,101.80
2017-11-14T15:36:55.809Z,104.13
2017-11-14T15:39:22.068Z,118.40
2017-11-14T15:41:48.563Z,91.20
2017-11-14T15:44:15.010Z,88.27
2017-11-14T15:46:41.643Z,89.80
2017-11-14T15:49:08.316Z,84.83
2017-11-14T15:51:34.943Z,105.47
2017-11-14T15:54:01.348Z,117.80
2017-11-14T15:56:28.017Z,96.80
2017-11-14T15:58:54.427Z,89.37
2017-11-14T16:01:20.843Z,91.40
2017-11-14T16:03:47.525Z,92.27
2017-11-14T16:06:14.163Z,131.53
2017-11-14T16:08:40.599Z,97.50
2017-11-14T16:11:07.212Z,104.13
2017-11-14T16:13:33.654Z,95.90
2017-11-14T16:16:00.305Z,105.17
2017-11-14T16:18:26.787Z,96.47
2017-11-14T16:20:53.377Z,115.03
2017-11-14T16:23:19.997Z,111.00
2017-11-14T16:25:46.664Z,105.00
2017-11-14T16:28:13.192Z,107.43
2017-11-14T16:30:39.726Z,92.13
2017-11-14T16:33:06.340Z,103.50
2017-11-14T16:35:32.598Z,110.03
2017-11-14T16:37:59.223Z,105.67
2017-11-14T16:40:25.870Z,92.10
2017-11-14T16:42:52.483Z,107.30
2017-11-14T16:45:18.926Z,97.37
2017-11-14T16:47:45.403Z,101.63
2017-11-14T16:50:11.752Z,128.20
2017-11-14T16:52:38.241Z,112.30
2017-11-14T16:55:04.523Z,98.70
2017-11-14T16:57:31.081Z,95.73
2017-11-14T16:59:57.906Z,102.73
2017-11-14T17:02:24.198Z,104.53
2017-11-14T17:04:50.436Z,121.43
2017-11-14T17:07:16.672Z,123.47
2017-11-14T17:09:42.958Z,134.07
2017-11-14T17:12:09.198Z,124.13
2017-11-14T17:14:35.428Z,124.37
2017-11-14T17:17:01.708Z,126.20
2017-11-14T17:19:27.953Z,126.53
2017-11-14T17:21:54.213Z,149.17
2017-11-14T17:24:20.502Z,121.73
2017-11-14T17:26:46.736Z,126.97
2017-11-14T17:29:13.070Z,143.60
2017-11-14T17:31:39.367Z,144.50
2017-11-14T17:34:05.623Z,153.20
2017-11-14T17:36:31.900Z,145.47
2017-11-14T17:38:58.190Z,134.97
2017-11-14T17:41:24.446Z,153.43
2017-11-14T17:43:50.689Z,157.67
2017-11-14T17:46:17.002Z,172.77
2017-11-14T17:48:43.245Z,162.77
2017-11-14T17:51:09.504Z,163.90
2017-11-14T17:53:35.797Z,146.90
2017-11-14T17:56:02.050Z,143.47
2017-11-14T17:58:28.305Z,136.30
2017-11-14T18:00:55.688Z,149.00
2017-11-14T18:03:21.924Z,141.87
2017-11-14T18:05:48.201Z,139.60
2017-11-14T18:08:14.476Z,162.63
2017-11-14T18:10:40.765Z,165.30
2017-11-14T18:13:07.047Z,166.37
2017-11-14T18:15:33.362Z,140.13
2017-11-14T18:17:59.642Z,152.43
2017-11-14T18:20:25.909Z,147.23
2017-11-14T18:22:52.225Z,177.87
2017-11-14T18:25:18.482Z,160.00
2017-11-14T18:27:44.820Z,158.50
2017-11-14T18:30:11.106Z,148.80
2017-11-14T18:32:37.347Z,163.30
2017-11-14T18:35:03.596Z,167.63
2017-11-14T18:37:29.868Z,144.37
2017-11-14T18:39:56.102Z,145.27
2017-11-14T18:42:22.351Z,155.67
2017-11-14T18:44:48.666Z,132.37
2017-11-14T18:47:14.905Z,145.20
2017-11-14T18:49:41.143Z,200.90
2017-11-14T18:52:07.425Z,160.83
2017-11-14T18:54:33.681Z,146.37
2017-11-14T18:56:59.909Z,143.20
2017-11-14T18:59:26.187Z,150.33
2017-11-14T19:01:52.431Z,151.10
2017-11-14T19:04:18.717Z,155.43
2017-11-14T19:06:45.058Z,152.97
2017-11-14T19:09:11.320Z,162.47
2017-11-14T19:11:37.585Z,149.63
2017-11-14T19:14:03.895Z,164.87
2017-11-14T19:16:30.159Z,181.37
2017-11-14T19:18:56.420Z,161.27
2017-11-14T19:21:22.729Z,181.43
2017-11-14T19:23:48.972Z,182.77
2017-11-14T19:26:15.227Z,180.13
2017-11-14T19:28:41.542Z,191.17
2017-11-14T19:31:07.791Z,188.33
2017-11-14T19:33:34.026Z,182.63
2017-11-14T19:36:00.540Z,188.33
2017-11-14T19:38:26.805Z,165.97
2017-11-14T19:40:53.061Z,197.63
2017-11-14T19:43:19.333Z,158.47
2017-11-14T19:45:45.579Z,186.23
2017-11-14T19:48:11.800Z,164.10
2017-11-14T19:50:38.072Z,188.07
2017-11-14T19:53:04.311Z,192.47
2017-11-14T19:55:30.542Z,164.00
2017-11-14T19:57:56.843Z,242.47
2017-11-14T20:00:23.088Z,223.67
2017-11-14T20:02:49.333Z,198.17
2017-11-14T20:05:15.617Z,198.97
2017-11-14T20:07:41.863Z,187.77
2017-11-14T20:10:08.199Z,186.70
2017-11-14T20:12:34.503Z,176.03
2017-11-14T20:15:00.755Z,177.93
2017-11-14T20:17:26.991Z,196.67
2017-11-14T20:19:53.291Z,183.63
2017-11-14T20:22:19.532Z,191.07
2017-11-14T20:24:45.777Z,171.10
2017-11-14T20:27:12.052Z,178.30
2017-11-14T20:29:38.289Z,161.00
2017-11-14T20:32:04.526Z,182.83
2017-11-14T20:34:30.825Z,171.27
2017-11-14T20:36:57.075Z,193.83
2017-11-14T20:39:23.330Z,178.67
2017-11-14T20:41:49.617Z,177.97
2017-11-14T20:44:15.873Z,179.87
2017-11-14T20:46:42.099Z,193.40
2017-11-14T20:49:08.376Z,182.73
2017-11-14T20:51:34.637Z,175.10
2017-11-14T20:54:00.883Z,167.63
2017-11-14T20:56:27.183Z,170.50
2017-11-14T20:58:53.420Z,194.27
2017-11-14T21:01:19.695Z,181.97
2017-11-14T21:03:46.000Z,177.40
2017-11-14T21:06:12.227Z,169.40
2017-11-14T21:08:38.464Z,181.97
2017-11-14T21:11:04.822Z,189.27
2017-11-14T21:13:31.072Z,192.77
2017-11-14T21:15:57.312Z,173.30
2017-11-14T21:18:23.608Z,239.87
2017-11-14T21:20:49.859Z,221.13
2017-11-14T21:23:16.098Z,187.87
2017-11-14T21:25:42.387Z,197.20
2017-11-14T21:28:08.631Z,179.50
2017-11-14T21:30:34.877Z,189.80
2017-11-14T21:33:01.156Z,185.23
2017-11-14T21:35:27.381Z,183.53
2017-11-14T21:37:53.618Z,178.73
2017-11-14T21:40:19.912Z,150.53
2017-11-14T21:42:46.164Z,163.53
2017-11-14T21:45:12.405Z,146.70
2017-11-14T21:47:38.668Z,127.33
2017-11-14T21:50:04.924Z,142.07
2017-11-14T21:52:31.201Z,133.53
2017-11-14T21:54:57.482Z,133.80
2017-11-14T21:57:23.751Z,134.03
2017-11-14T21:59:49.975Z,154.43
2017-11-14T22:02:16.270Z,122.93
2017-11-14T22:04:42.587Z,133.97
2017-11-14T22:07:08.843Z,136.93
2017-11-14T22:09:35.183Z,131.20
2017-11-14T22:12:01.439Z,124.40
2017-11-14T22:14:27.711Z,130.27
2017-11-14T22:16:54.016Z,138.40
2017-11-14T22:19:20.272Z,126.60
2017-11-14T22:21:46.499Z,126.67
2017-11-14T22:24:12.789Z,125.70
2017-11-14T22:26:39.057Z,141.73
2017-11-14T22:29:05.301Z,121.43
2017-11-14T22:31:31.629Z,139.80
2017-11-14T22:33:57.909Z,135.13
2017-11-14T22:36:24.153Z,84.77
2017-11-14T22:38:50.436Z,78.20
2017-11-14T22:41:16.668Z,63.17
2017-11-14T22:43:42.905Z,72.80
2017-11-14T22:46:09.219Z,65.30
2017-11-14T22:48:35.453Z,72.27
2017-11-14T22:51:01.700Z,63.70
2017-11-14T22:53:27.975Z,80.77
2017-11-14T22:55:54.225Z,71.63
2017-11-14T22:58:20.477Z,64.67
2017-11-14T23:00:46.751Z,74.10
2017-11-14T23:03:12.975Z,67.13
2017-11-14T23:05:39.221Z,63.83
2017-11-14T23:08:05.519Z,63.30
2017-11-14T23:10:31.774Z,59.10
2017-11-14T23:12:58.004Z,61.17
2017-11-14T23:15:24.284Z,73.50
2017-11-14T23:17:50.520Z,65.33
2017-11-14T23:20:16.754Z,59.30
2017-11-14T23:22:43.041Z,67.43
2017-11-14T23:25:09.296Z,56.27
2017-11-14T23:27:35.562Z,56.73
2017-11-14T23:30:01.857Z,60.03
2017-11-14T23:32:28.173Z,62.43
2017-11-14T23:34:54.413Z,65.73
2017-11-14T23:37:20.702Z,60.43
2017-11-14T23:39:46.941Z,59.30
2017-11-14T23:42:13.192Z,55.20
2017-11-14T23:44:39.632Z,65.33
2017-11-14T23:47:07.562Z,68.73
2017-11-14T23:49:33.822Z,64.43
2017-11-14T23:52:00.111Z,62.17
2017-11-14T23:54:26.364Z,76.70
2017-11-14T23:56:52.619Z,50.03
